createdAt,value
2022-12-27T00:05:48.734Z,5.15
2022-12-27T00:15:50.426Z,5.11
2022-12-27T00:26:04.159Z,5.00
2022-12-27T00:36:07.870Z,5.01
2022-12-27T00:46:10.081Z,5.04
2022-12-27T00:56:21.335Z,4.85
2022-12-27T01:06:29.143Z,4.90
2022-12-27T01:16:31.934Z,4.94
2022-12-27T01:26:34.713Z,5.06
2022-12-27T01:36:36.510Z,5.11
2022-12-27T01:46:38.478Z,5.51
2022-12-27T01:56:43.451Z,5.90
2022-12-27T02:06:46.944Z,6.30
2022-12-27T02:16:49.100Z,7.24
2022-12-27T02:27:02.909Z,7.47
2022-12-27T02:37:09.721Z,7.52
2022-12-27T02:47:38.780Z,7.52
2022-12-27T02:58:06.006Z,7.09
2022-12-27T03:08:29.699Z,6.91
2022-12-27T03:19:05.291Z,6.72
2022-12-27T03:29:27.523Z,6.58
2022-12-27T03:39:37.419Z,6.43
2022-12-27T03:49:50.760Z,6.33
2022-12-27T03:59:53.769Z,6.20
2022-12-27T04:10:14.378Z,6.06
2022-12-27T04:20:34.978Z,5.92
2022-12-27T04:30:55.372Z,5.67
2022-12-27T04:41:24.324Z,5.48
2022-12-27T04:51:45.902Z,5.53
2022-12-27T05:02:05.000Z,5.50
2022-12-27T05:12:29.500Z,6.98
2022-12-27T05:22:54.944Z,7.23
2022-12-27T05:33:04.334Z,7.60
2022-12-27T05:43:06.138Z,7.55
2022-12-27T05:53:08.342Z,7.66
2022-12-27T06:03:10.180Z,7.91
2022-12-27T06:13:12.031Z,7.58
2022-12-27T06:23:18.852Z,8.09
2022-12-27T06:33:20.531Z,7.76
2022-12-27T06:43:27.008Z,7.49
2022-12-27T06:53:33.746Z,7.59
2022-12-27T07:03:36.297Z,8.17
2022-12-27T07:13:41.344Z,8.33
2022-12-27T07:23:43.367Z,8.61
2022-12-27T07:33:45.421Z,8.70
2022-12-27T07:43:47.494Z,8.92
2022-12-27T07:53:51.811Z,8.98
2022-12-27T08:03:54.625Z,9.43
2022-12-27T08:13:56.496Z,9.92
2022-12-27T08:23:58.571Z,9.78
2022-12-27T08:34:00.187Z,9.32
2022-12-27T08:44:01.867Z,9.20
2022-12-27T08:54:04.407Z,8.87
2022-12-27T09:04:08.957Z,9.69
2022-12-27T09:14:11.892Z,9.60
2022-12-27T09:24:14.327Z,10.72
2022-12-27T09:34:22.469Z,11.53
2022-12-27T09:44:32.624Z,11.53
2022-12-27T09:55:17.803Z,11.93
2022-12-27T10:05:23.498Z,11.57
2022-12-27T10:15:50.276Z,11.90
2022-12-27T10:25:58.958Z,12.19
2022-12-27T10:36:10.807Z,12.02
2022-12-27T10:46:15.082Z,11.94
2022-12-27T10:56:29.524Z,12.27
2022-12-27T11:06:32.018Z,12.54
2022-12-27T11:16:36.113Z,13.02
2022-12-27T11:26:55.874Z,13.34
2022-12-27T11:37:15.689Z,12.24
2022-12-27T11:47:36.800Z,15.46
2022-12-27T11:57:51.081Z,14.16
2022-12-27T12:08:36.441Z,13.61
2022-12-27T12:19:08.902Z,14.41
2022-12-27T12:29:31.067Z,10.68
2022-12-27T12:40:01.364Z,8.99
2022-12-27T12:50:21.652Z,9.68
2022-12-27T13:00:51.804Z,9.04
2022-12-27T13:11:13.995Z,9.52
2022-12-27T13:21:46.633Z,10.02
2022-12-27T13:32:04.952Z,11.57
2022-12-27T13:42:24.628Z,8.39
2022-12-27T13:52:57.562Z,7.39
2022-12-27T14:03:17.393Z,8.29
2022-12-27T14:13:41.788Z,7.84
2022-12-27T14:24:32.830Z,7.32
2022-12-27T14:35:04.689Z,6.07
2022-12-27T14:45:38.205Z,5.49
2022-12-27T14:56:21.538Z,5.11
2022-12-27T15:06:45.024Z,4.88
2022-12-27T15:17:07.897Z,4.68
2022-12-27T15:27:26.057Z,4.35
2022-12-27T15:38:02.866Z,4.23
2022-12-27T15:48:10.333Z,4.27
2022-12-27T15:58:19.107Z,4.36
2022-12-27T16:08:27.709Z,4.23
2022-12-27T16:18:29.598Z,4.01
2022-12-27T16:28:42.487Z,3.83
2022-12-27T16:39:02.432Z,3.77
2022-12-27T16:49:26.233Z,3.73
2022-12-27T17:00:05.856Z,3.61
2022-12-27T17:10:35.891Z,3.53
2022-12-27T17:20:41.339Z,3.43
2022-12-27T17:31:14.739Z,3.31
2022-12-27T17:41:53.746Z,3.23
2022-12-27T17:52:15.663Z,3.09
2022-12-27T18:02:26.224Z,2.88
2022-12-27T18:12:44.471Z,2.72
2022-12-27T18:22:46.728Z,2.34
2022-12-27T18:32:49.081Z,2.13
2022-12-27T18:42:54.165Z,2.23
2022-12-27T18:53:02.405Z,2.03
2022-12-27T19:03:21.252Z,1.84
2022-12-27T19:13:30.446Z,1.94
2022-12-27T19:23:39.992Z,1.43
2022-12-27T19:33:55.263Z,1.49
2022-12-27T19:43:57.753Z,1.42
2022-12-27T19:54:00.003Z,1.43
2022-12-27T20:04:02.633Z,1.47
2022-12-27T20:14:04.920Z,1.89
2022-12-27T20:24:08.789Z,1.76
2022-12-27T20:34:11.458Z,1.39
2022-12-27T20:44:15.670Z,1.29
2022-12-27T20:54:19.107Z,0.85
2022-12-27T21:04:22.100Z,1.28
2022-12-27T21:14:24.049Z,1.08
2022-12-27T21:24:27.036Z,1.03
2022-12-27T21:34:30.269Z,0.94
2022-12-27T21:44:38.184Z,0.81
2022-12-27T21:54:41.279Z,0.71
2022-12-27T22:04:43.365Z,0.76
2022-12-27T22:14:48.140Z,1.00
2022-12-27T22:24:49.804Z,0.97
2022-12-27T22:34:54.548Z,1.09
2022-12-27T22:44:56.511Z,1.03
2022-12-27T22:55:04.580Z,1.07
2022-12-27T23:05:14.417Z,0.96
2022-12-27T23:15:16.363Z,0.97
2022-12-27T23:25:19.096Z,0.73
2022-12-27T23:35:21.354Z,0.48
2022-12-27T23:45:23.948Z,0.19
2022-12-27T23:55:25.652Z,0.22
